Time;durP1;ratioP1;P1;durP2;ratioP2;P2;SDS_P1;SDS_P2;PMS_P1;PMS_P2;Temp;Humidity;BMP_temperature;BMP_pressure;BME280_temperature;BME280_humidity;BME280_pressure;Samples;Min_cycle;Max_cycle;Signal;HPM_P1;HPM_P2
2022/01/16 00:04:17;;;;;;;5.62;3.83;;;-6.30;99.90;;;;;;4405442;32;20077;-64
2022/01/16 00:06:46;;;;;;;5.30;3.58;;;-6.40;99.90;;;;;;4391755;32;20504;-66
2022/01/16 00:09:13;;;;;;;6.25;3.37;;;-6.30;99.90;;;;;;4393683;32;20070;-66
2022/01/16 00:11:39;;;;;;;6.45;3.85;;;-6.30;99.90;;;;;;4405412;32;20104;-66
2022/01/16 00:14:07;;;;;;;6.18;3.50;;;-6.30;99.90;;;;;;4392239;32;20174;-65
2022/01/16 00:16:34;;;;;;;6.50;3.70;;;-6.30;99.90;;;;;;4392092;32;20493;-66
2022/01/16 00:19:01;;;;;;;5.87;3.60;;;-6.20;99.90;;;;;;4391940;32;20072;-67
2022/01/16 00:21:36;;;;;;;5.70;3.42;;;-6.20;99.90;;;;;;4404586;32;20085;-66
2022/01/16 00:24:03;;;;;;;7.00;3.83;;;-6.20;99.90;;;;;;4392115;32;20089;-65
2022/01/16 00:26:30;;;;;;;6.03;3.70;;;-6.20;99.90;;;;;;4392216;32;20089;-66
2022/01/16 00:28:56;;;;;;;4.82;3.22;;;-6.10;99.90;;;;;;4391983;32;20179;-66
2022/01/16 00:31:25;;;;;;;5.62;3.45;;;-6.10;99.90;;;;;;4393326;32;20078;-65
2022/01/16 00:33:52;;;;;;;5.50;3.50;;;-6.10;99.90;;;;;;4391835;32;20115;-66
2022/01/16 00:36:20;;;;;;;6.05;3.47;;;-6.10;99.90;;;;;;4392193;32;20062;-66
2022/01/16 00:38:48;;;;;;;5.57;3.45;;;-6.10;99.90;;;;;;4392360;32;20141;-65
2022/01/16 00:41:18;;;;;;;6.37;3.80;;;-6.10;99.90;;;;;;4393078;32;20089;-66
2022/01/16 00:43:45;;;;;;;5.75;3.70;;;-6.00;99.90;;;;;;4391548;32;20520;-67
2022/01/16 00:46:12;;;;;;;6.47;3.60;;;-6.00;99.90;;;;;;4392059;32;20092;-65
2022/01/16 00:48:38;;;;;;;5.62;3.65;;;-6.00;99.90;;;;;;4404204;32;20177;-65
2022/01/16 00:51:05;;;;;;;5.12;3.47;;;-5.90;99.90;;;;;;4391795;32;20154;-64
2022/01/16 00:53:31;;;;;;;5.70;3.60;;;-5.90;99.90;;;;;;4391787;32;20072;-65
2022/01/16 00:55:58;;;;;;;6.37;3.72;;;-5.90;99.90;;;;;;4404374;32;20508;-65
2022/01/16 00:58:25;;;;;;;4.93;3.20;;;-5.90;99.90;;;;;;4392748;32;20164;-65
2022/01/16 01:00:51;;;;;;;5.30;3.37;;;-5.80;99.90;;;;;;4404491;32;20080;-65
2022/01/16 01:03:18;;;;;;;5.80;3.50;;;-5.90;99.90;;;;;;4391902;32;20078;-66
2022/01/16 01:05:45;;;;;;;6.53;3.75;;;-5.90;99.90;;;;;;4378771;32;20482;-66
2022/01/16 01:08:12;;;;;;;5.70;3.58;;;-5.90;99.90;;;;;;4378664;32;20082;-65
2022/01/16 01:10:40;;;;;;;5.85;3.22;;;-5.90;99.90;;;;;;4391916;32;20186;-66
2022/01/16 01:13:22;;;;;;;5.70;3.70;;;-5.80;99.90;;;;;;4391503;32;20131;-66
2022/01/16 01:15:57;;;;;;;5.50;3.40;;;-5.90;99.90;;;;;;4391729;32;20448;-66
2022/01/16 01:18:24;;;;;;;5.37;3.60;;;-5.90;99.90;;;;;;4391302;32;20085;-66
2022/01/16 01:20:52;;;;;;;5.47;3.40;;;-5.80;99.90;;;;;;4393003;32;20526;-65
2022/01/16 01:23:19;;;;;;;4.43;3.35;;;-5.90;99.90;;;;;;4394033;32;20169;-65
2022/01/16 01:25:46;;;;;;;5.32;3.00;;;-5.80;99.90;;;;;;4392452;32;20464;-66
2022/01/16 01:28:13;;;;;;;6.15;3.28;;;-5.80;99.90;;;;;;4404413;32;20089;-66
2022/01/16 01:30:43;;;;;;;5.30;3.40;;;-5.80;99.90;;;;;;4391344;32;20150;-65
2022/01/16 01:33:13;;;;;;;5.68;3.25;;;-5.80;99.90;;;;;;4390961;32;20151;-67
2022/01/16 01:35:40;;;;;;;5.62;3.72;;;-5.80;99.90;;;;;;4403328;32;20109;-66
2022/01/16 01:38:09;;;;;;;5.93;3.53;;;-5.70;99.90;;;;;;4379188;32;20077;-66
2022/01/16 01:40:36;;;;;;;5.43;3.40;;;-5.70;99.90;;;;;;4392027;32;20630;-66
2022/01/16 01:51:02;;;;;;;5.95;3.60;;;-5.70;99.90;;;;;;4403246;32;20087;-66
2022/01/16 01:51:44;;;;;;;5.97;3.55;;;-5.70;99.90;;;;;;4391224;32;20082;-66
2022/01/16 01:54:12;;;;;;;5.62;3.83;;;-5.70;99.90;;;;;;4403049;32;20083;-66
2022/01/16 01:56:39;;;;;;;6.25;3.58;;;-5.70;99.90;;;;;;4403163;32;20532;-65
2022/01/16 01:59:07;;;;;;;4.80;3.47;;;-5.70;99.90;;;;;;4391207;32;20082;-66
2022/01/16 02:01:34;;;;;;;5.68;3.37;;;-5.60;99.90;;;;;;4409802;32;20080;-66
2022/01/16 02:04:00;;;;;;;5.28;3.45;;;-5.60;99.90;;;;;;4407485;32;20489;-65
2022/01/16 02:06:33;;;;;;;6.32;3.62;;;-5.60;99.90;;;;;;4390763;32;20082;-68
2022/01/16 02:09:06;;;;;;;5.55;3.62;;;-5.60;99.90;;;;;;4402767;32;20073;-65
2022/01/16 02:11:34;;;;;;;4.95;3.20;;;-5.60;99.90;;;;;;4403618;32;20088;-66
2022/01/16 02:14:11;;;;;;;5.55;3.20;;;-5.60;99.90;;;;;;4391239;32;20235;-66
2022/01/16 02:28:08;;;;;;;5.68;2.92;;;-5.40;99.90;;;;;;4391667;32;20457;-66
2022/01/16 02:36:06;;;;;;;5.12;2.83;;;-5.30;99.90;;;;;;4391444;32;20072;-65
2022/01/16 02:38:32;;;;;;;4.37;3.00;;;-5.30;99.90;;;;;;4402655;32;20077;-66
2022/01/16 02:41:03;;;;;;;6.10;2.90;;;-5.30;99.90;;;;;;4389778;32;20153;-66
2022/01/16 02:43:33;;;;;;;4.57;2.80;;;-5.20;99.90;;;;;;4389883;32;20070;-65
2022/01/16 02:48:49;;;;;;;4.00;2.60;;;-5.10;99.90;;;;;;4391523;32;20082;-66
2022/01/16 02:51:23;;;;;;;3.45;2.30;;;-5.10;99.90;;;;;;4390003;32;20078;-65
2022/01/16 02:53:50;;;;;;;6.62;3.00;;;-5.00;99.90;;;;;;4402571;32;20065;-65
2022/01/16 02:56:18;;;;;;;4.32;2.50;;;-5.00;99.90;;;;;;4402414;32;20090;-64
2022/01/16 02:58:47;;;;;;;5.25;2.65;;;-5.00;99.90;;;;;;4389863;32;20509;-66
2022/01/16 03:01:14;;;;;;;5.70;2.40;;;-4.90;99.90;;;;;;4391209;32;20520;-66
2022/01/16 03:03:41;;;;;;;4.80;2.42;;;-4.90;99.90;;;;;;4389730;32;20168;-64
2022/01/16 03:06:08;;;;;;;4.32;2.55;;;-4.90;99.90;;;;;;4390034;32;20074;-65
2022/01/16 03:08:34;;;;;;;5.12;2.20;;;-4.90;99.90;;;;;;4389394;32;20085;-66
2022/01/16 03:11:13;;;;;;;3.95;2.40;;;-4.90;99.90;;;;;;4389848;32;20074;-65
2022/01/16 03:13:48;;;;;;;3.17;2.03;;;-4.90;99.90;;;;;;4389843;32;20097;-66
2022/01/16 03:16:20;;;;;;;3.28;2.12;;;-4.90;99.90;;;;;;4391585;32;20066;-67
2022/01/16 03:21:55;;;;;;;2.17;1.50;;;-5.00;99.90;;;;;;4390577;32;20150;-65
2022/01/16 03:24:38;;;;;;;3.05;1.80;;;-5.10;99.90;;;;;;4390209;32;20089;-65
2022/01/16 03:27:08;;;;;;;3.58;1.95;;;-5.10;99.90;;;;;;4389620;32;20467;-65
2022/01/16 03:29:36;;;;;;;4.70;2.17;;;-5.10;99.90;;;;;;4392595;32;20078;-65
2022/01/16 03:32:05;;;;;;;3.08;1.92;;;-5.20;99.90;;;;;;4407648;32;20097;-66
2022/01/16 03:34:32;;;;;;;3.05;2.08;;;-5.20;99.90;;;;;;4394186;32;20062;-66
2022/01/16 03:36:58;;;;;;;3.95;2.33;;;-5.20;99.90;;;;;;4393356;32;20447;-66
2022/01/16 03:39:25;;;;;;;3.12;2.03;;;-5.20;99.90;;;;;;4394355;32;20076;-66
2022/01/16 03:41:52;;;;;;;3.58;2.28;;;-5.20;99.90;;;;;;4392853;32;20085;-66
2022/01/16 03:44:20;;;;;;;3.47;2.00;;;-5.20;99.90;;;;;;4405078;32;20096;-65
2022/01/16 03:46:46;;;;;;;3.70;1.90;;;-5.10;99.90;;;;;;4392510;32;20077;-65
2022/01/16 03:49:17;;;;;;;3.22;1.77;;;-5.10;99.90;;;;;;4393852;32;20526;-66
2022/01/16 03:51:47;;;;;;;4.45;2.28;;;-5.20;99.90;;;;;;4392662;32;20070;-66
2022/01/16 03:54:17;;;;;;;3.80;1.80;;;-5.10;99.90;;;;;;4392830;32;20085;-66
2022/01/16 03:56:44;;;;;;;3.03;1.87;;;-5.10;99.90;;;;;;4405439;32;20084;-66
2022/01/16 03:59:11;;;;;;;2.08;1.70;;;-5.00;99.90;;;;;;4392487;32;20101;-65
2022/01/16 04:01:39;;;;;;;4.53;1.83;;;-5.00;99.90;;;;;;4392251;32;20085;-66
2022/01/16 04:04:06;;;;;;;2.87;2.00;;;-5.00;99.90;;;;;;4392219;32;20161;-66
2022/01/16 04:06:33;;;;;;;2.33;1.48;;;-4.90;99.90;;;;;;4405085;32;20832;-65
2022/01/16 04:09:00;;;;;;;1.80;1.33;;;-5.00;99.90;;;;;;4392266;32;20077;-66
2022/01/16 04:11:28;;;;;;;2.65;1.40;;;-5.00;99.90;;;;;;4393893;32;20097;-65
2022/01/16 04:14:05;;;;;;;2.30;1.35;;;-5.00;99.90;;;;;;4392197;32;20090;-64
2022/01/16 04:16:32;;;;;;;;;;;-5.00;99.90;;;;;;4392606;32;20160;-65
2022/01/16 04:18:59;;;;;;;2.12;1.55;;;-5.00;99.90;;;;;;4379863;32;20347;-65
2022/01/16 04:21:28;;;;;;;2.67;1.27;;;-5.00;99.90;;;;;;4396640;32;20160;-65
2022/01/16 04:23:55;;;;;;;2.85;1.25;;;-5.00;99.90;;;;;;4415308;32;20060;-65
2022/01/16 04:26:25;;;;;;;2.15;1.30;;;-5.00;99.90;;;;;;4407328;32;20073;-66
2022/01/16 04:28:54;;;;;;;2.08;1.45;;;-5.00;99.90;;;;;;4392321;32;20523;-65
2022/01/16 04:31:21;;;;;;;1.60;1.40;;;-5.00;99.90;;;;;;4404485;32;20085;-65
2022/01/16 04:33:48;;;;;;;2.08;1.33;;;-5.10;99.90;;;;;;4393351;32;20082;-66
2022/01/16 04:36:15;;;;;;;2.58;1.20;;;-5.00;99.90;;;;;;4391819;32;20471;-65
2022/01/16 04:38:47;;;;;;;2.87;1.40;;;-5.00;99.90;;;;;;4393540;32;20082;-65
2022/01/16 04:44:01;;;;;;;1.40;1.20;;;-5.10;99.90;;;;;;4381478;32;20074;-66
2022/01/16 04:46:29;;;;;;;1.50;1.05;;;-5.00;99.90;;;;;;4379082;32;20082;-66
2022/01/16 04:48:58;;;;;;;1.12;1.02;;;-5.00;99.90;;;;;;4404537;32;20077;-65
2022/01/16 04:51:25;;;;;;;1.85;1.12;;;-5.00;99.90;;;;;;4391680;32;20077;-66
2022/01/16 04:53:52;;;;;;;1.40;1.10;;;-5.00;99.90;;;;;;4391516;32;20513;-65
2022/01/16 04:56:18;;;;;;;1.52;1.15;;;-5.00;99.90;;;;;;4404495;32;20165;-66
2022/01/16 04:58:45;;;;;;;2.28;1.60;;;-5.00;99.90;;;;;;4379343;32;20085;-66
2022/01/16 05:01:12;;;;;;;1.70;1.30;;;-5.00;99.90;;;;;;4378818;32;20119;-65
2022/01/16 05:03:39;;;;;;;1.95;1.20;;;-4.90;99.90;;;;;;4404088;32;20182;-66
2022/01/16 05:06:06;;;;;;;1.58;1.12;;;-4.90;99.90;;;;;;4391513;32;20089;-66
2022/01/16 05:08:33;;;;;;;2.15;1.30;;;-4.90;99.90;;;;;;4390981;32;20557;-65
2022/01/16 05:11:00;;;;;;;1.77;1.33;;;-5.00;99.90;;;;;;4391570;32;20069;-66
2022/01/16 05:18:43;;;;;;;2.37;1.50;;;-5.00;99.90;;;;;;4390977;32;20533;-64
2022/01/16 05:21:10;;;;;;;1.45;1.10;;;-4.90;99.90;;;;;;4403586;32;20085;-66
2022/01/16 05:23:37;;;;;;;1.52;1.20;;;-4.90;99.90;;;;;;4403615;32;20081;-66
2022/01/16 05:26:05;;;;;;;1.23;0.75;;;-4.90;99.90;;;;;;4403631;32;20066;-66
2022/01/16 05:28:32;;;;;;;1.45;1.02;;;-5.00;99.90;;;;;;4403938;32;20092;-65
2022/01/16 05:30:58;;;;;;;1.37;1.05;;;-4.90;99.90;;;;;;4391224;32;20085;-66
2022/01/16 05:33:38;;;;;;;2.07;0.87;;;-4.90;99.90;;;;;;3857288;37;20070;-64
2022/01/16 05:36:05;;;;;;;0.70;0.68;;;-4.90;99.90;;;;;;4390637;32;20615;-65
2022/01/16 05:38:32;;;;;;;1.35;1.12;;;-5.00;99.90;;;;;;4403003;32;20093;-67
2022/01/16 05:40:59;;;;;;;1.20;1.10;;;-5.00;99.90;;;;;;4377946;32;20518;-66
2022/01/16 05:43:25;;;;;;;1.45;1.12;;;-4.90;99.90;;;;;;4390528;32;20078;-65
2022/01/16 05:45:52;;;;;;;0.88;0.77;;;-5.00;99.90;;;;;;4390396;32;20100;-66
2022/01/16 05:48:19;;;;;;;1.58;1.00;;;-5.00;99.90;;;;;;4377784;32;20084;-65
2022/01/16 05:50:45;;;;;;;1.85;1.00;;;-4.90;99.90;;;;;;4403186;32;20089;-64
2022/01/16 05:53:11;;;;;;;2.45;1.00;;;-4.90;99.90;;;;;;4402744;32;20615;-65
2022/01/16 05:55:38;;;;;;;2.33;1.08;;;-4.90;99.90;;;;;;4390182;32;20066;-65
2022/01/16 05:58:07;;;;;;;2.50;1.20;;;-4.70;99.90;;;;;;4389962;32;20057;-65
2022/01/16 06:00:36;;;;;;;2.67;1.27;;;-4.80;99.90;;;;;;4402597;32;20150;-66
2022/01/16 06:03:02;;;;;;;1.50;1.30;;;-4.80;99.90;;;;;;4402769;32;20180;-66
2022/01/16 06:05:29;;;;;;;1.23;0.98;;;-4.80;99.90;;;;;;4390295;32;20086;-65
2022/01/16 06:07:59;;;;;;;1.77;0.70;;;-4.80;99.90;;;;;;4402886;32;20072;-65
2022/01/16 06:10:26;;;;;;;2.55;1.87;;;-4.80;99.90;;;;;;4402768;32;20074;-66
2022/01/16 06:12:53;;;;;;;2.15;1.62;;;-4.90;99.90;;;;;;4403859;32;20085;-66
2022/01/16 06:15:22;;;;;;;2.45;1.45;;;-4.90;99.90;;;;;;4402670;32;20507;-67
2022/01/16 06:17:49;;;;;;;2.10;1.48;;;-4.80;99.90;;;;;;4402627;32;20097;-66
2022/01/16 06:20:15;;;;;;;1.23;1.10;;;-4.80;99.90;;;;;;4402522;32;20062;-66
2022/01/16 06:22:43;;;;;;;1.30;1.10;;;-4.80;99.90;;;;;;4389986;32;20093;-65
2022/01/16 06:25:11;;;;;;;1.95;1.30;;;-4.70;99.90;;;;;;4390165;32;20149;-66
2022/01/16 06:27:38;;;;;;;1.48;1.35;;;-4.60;99.90;;;;;;4403443;32;20108;-65
2022/01/16 06:30:08;;;;;;;2.45;1.50;;;-4.60;99.90;;;;;;4403117;32;20155;-66
2022/01/16 06:32:34;;;;;;;1.48;1.33;;;-4.60;99.90;;;;;;4401561;32;20173;-66
2022/01/16 06:35:01;;;;;;;1.27;1.15;;;-4.60;99.90;;;;;;4389636;32;20559;-65
2022/01/16 06:37:27;;;;;;;1.42;1.33;;;-4.50;99.90;;;;;;4402656;32;20154;-65
2022/01/16 06:39:54;;;;;;;2.00;1.33;;;-4.50;99.90;;;;;;4389994;32;20066;-66
2022/01/16 06:42:21;;;;;;;1.98;1.30;;;-4.50;99.90;;;;;;4406325;32;20605;-67
2022/01/16 06:44:47;;;;;;;2.62;1.80;;;-4.40;99.90;;;;;;4402006;32;20101;-66
2022/01/16 06:47:14;;;;;;;3.25;2.03;;;-4.50;99.90;;;;;;4392481;32;20428;-65
2022/01/16 06:49:41;;;;;;;3.25;2.10;;;-4.40;99.90;;;;;;4392027;32;20078;-65
2022/01/16 06:52:08;;;;;;;3.05;2.00;;;-4.40;99.90;;;;;;4393104;32;20073;-65
2022/01/16 06:54:34;;;;;;;3.12;1.87;;;-4.40;99.90;;;;;;4379329;32;20078;-66
2022/01/16 06:57:01;;;;;;;3.33;1.65;;;-4.40;99.90;;;;;;4379328;32;20085;-66
2022/01/16 06:59:28;;;;;;;4.15;1.37;;;-4.40;99.90;;;;;;4379447;32;20076;-65
2022/01/16 07:01:54;;;;;;;1.40;1.00;;;-4.30;99.90;;;;;;4379253;32;20512;-65
2022/01/16 07:04:21;;;;;;;1.70;1.12;;;-4.30;99.90;;;;;;4391665;32;20116;-65
2022/01/16 07:06:47;;;;;;;2.45;1.30;;;-4.20;99.90;;;;;;4393052;32;20085;-65
2022/01/16 07:09:14;;;;;;;1.27;1.17;;;-4.10;99.90;;;;;;4379324;32;20100;-65
2022/01/16 07:11:41;;;;;;;2.83;1.37;;;-4.10;99.90;;;;;;4393008;32;20157;-65
2022/01/16 07:14:07;;;;;;;1.20;1.10;;;-4.10;99.90;;;;;;4379128;32;20456;-64
2022/01/16 07:16:34;;;;;;;2.78;1.35;;;-4.10;99.90;;;;;;4393437;32;20084;-65
2022/01/16 07:19:00;;;;;;;1.95;0.90;;;-4.00;99.90;;;;;;4392867;32;20139;-64
2022/01/16 07:21:27;;;;;;;1.87;1.40;;;-4.00;99.90;;;;;;4378991;32;20163;-65
2022/01/16 07:23:53;;;;;;;1.87;1.48;;;-4.00;99.90;;;;;;4391533;32;20534;-66
2022/01/16 07:26:20;;;;;;;2.03;1.60;;;-4.10;99.90;;;;;;4392719;32;20084;-65
2022/01/16 07:28:47;;;;;;;1.30;0.93;;;-3.90;99.90;;;;;;4378622;32;20073;-65
2022/01/16 07:31:13;;;;;;;1.67;1.33;;;-4.00;99.90;;;;;;4378705;32;20063;-66
2022/01/16 07:33:40;;;;;;;2.83;1.48;;;-3.90;99.90;;;;;;4379083;32;20087;-64
2022/01/16 07:36:07;;;;;;;1.25;1.15;;;-4.00;99.90;;;;;;4378655;32;20073;-65
2022/01/16 07:38:33;;;;;;;2.12;1.50;;;-4.00;99.90;;;;;;4392605;32;20081;-65
2022/01/16 07:41:00;;;;;;;1.95;1.58;;;-4.00;99.90;;;;;;4391395;32;20100;-65
2022/01/16 07:43:27;;;;;;;2.08;1.30;;;-3.90;99.90;;;;;;4378393;32;20072;-65
2022/01/16 07:45:53;;;;;;;1.52;1.40;;;-3.70;99.90;;;;;;4366190;32;20143;-64
2022/01/16 07:48:20;;;;;;;1.45;1.10;;;-3.70;99.90;;;;;;4378593;32;20097;-66
2022/01/16 07:50:47;;;;;;;2.08;1.40;;;-3.80;99.90;;;;;;4378552;32;20074;-66
2022/01/16 07:53:13;;;;;;;2.15;1.45;;;-3.70;99.90;;;;;;4378331;32;20099;-65
2022/01/16 07:55:40;;;;;;;2.70;1.75;;;-3.70;99.90;;;;;;4378287;32;20160;-66
2022/01/16 07:58:08;;;;;;;2.45;1.65;;;-3.40;99.90;;;;;;4378499;32;20086;-66
2022/01/16 08:00:34;;;;;;;2.40;1.80;;;-3.60;99.90;;;;;;4378320;32;20077;-66
2022/01/16 08:03:02;;;;;;;2.35;1.40;;;-3.80;99.90;;;;;;4378373;32;20464;-67
2022/01/16 08:05:29;;;;;;;1.33;1.15;;;-3.60;99.90;;;;;;4391148;32;20537;-65
2022/01/16 08:07:56;;;;;;;2.50;1.48;;;-3.70;99.90;;;;;;4391004;32;20073;-67
2022/01/16 08:10:22;;;;;;;2.40;1.60;;;-3.60;99.90;;;;;;4391072;32;20078;-66
2022/01/16 08:12:49;;;;;;;5.00;2.17;;;-3.60;99.90;;;;;;4392055;32;20077;-65
2022/01/16 08:15:15;;;;;;;4.35;2.03;;;-3.60;99.90;;;;;;4378169;32;20077;-66
2022/01/16 08:17:42;;;;;;;4.80;2.12;;;-3.20;99.90;;;;;;4390620;32;20073;-66
2022/01/16 08:20:09;;;;;;;3.08;2.28;;;-3.40;99.90;;;;;;4378266;32;20171;-66
2022/01/16 08:22:37;;;;;;;2.58;1.73;;;-3.50;99.90;;;;;;4390680;32;20077;-66
2022/01/16 08:25:05;;;;;;;2.55;1.73;;;-3.30;99.90;;;;;;4378085;32;20073;-65
2022/01/16 08:29:16;;;;;;;1.43;1.17;;;-3.50;99.90;;;;;;3857327;37;20081;-65
2022/01/16 08:31:42;;;;;;;1.75;1.23;;;-3.40;99.90;;;;;;4419617;32;20248;-66
2022/01/16 08:34:09;;;;;;;2.25;1.62;;;-3.10;99.90;;;;;;4393140;32;20096;-65
2022/01/16 08:36:35;;;;;;;1.80;1.20;;;-3.30;99.90;;;;;;4407171;32;20150;-64
2022/01/16 08:39:03;;;;;;;1.60;1.30;;;-3.30;99.90;;;;;;4403314;32;20179;-65
2022/01/16 08:41:30;;;;;;;2.05;1.23;;;-3.10;99.90;;;;;;4377828;32;20541;-66
2022/01/16 08:43:56;;;;;;;1.92;1.37;;;-3.20;99.90;;;;;;4377962;32;20161;-66
2022/01/16 08:46:23;;;;;;;2.17;1.48;;;-3.10;99.90;;;;;;4403560;32;20583;-66
2022/01/16 08:48:51;;;;;;;2.15;1.62;;;-3.00;99.90;;;;;;4377407;32;20089;-66
2022/01/16 08:51:18;;;;;;;1.85;1.23;;;-3.10;99.90;;;;;;4402593;32;20537;-65
2022/01/16 08:53:46;;;;;;;2.37;1.70;;;-3.40;99.90;;;;;;4377837;32;20523;-64
2022/01/16 08:56:16;;;;;;;1.62;1.42;;;-3.40;99.90;;;;;;4403437;32;20154;-66
2022/01/16 08:58:43;;;;;;;2.47;1.60;;;-3.20;99.90;;;;;;4408879;32;20089;-66
2022/01/16 09:01:09;;;;;;;3.35;1.80;;;-3.30;99.90;;;;;;4400907;32;20150;-66
2022/01/16 09:03:38;;;;;;;2.12;1.37;;;-2.90;99.90;;;;;;4390361;32;20092;-65
2022/01/16 09:06:05;;;;;;;1.62;1.45;;;-3.00;99.90;;;;;;4377839;32;20186;-66
2022/01/16 09:08:32;;;;;;;2.28;1.20;;;-3.10;99.90;;;;;;4389983;32;20076;-65
2022/01/16 09:10:58;;;;;;;1.85;1.10;;;-3.20;99.90;;;;;;4377658;32;20472;-65
2022/01/16 09:13:25;;;;;;;3.00;1.27;;;-3.20;99.90;;;;;;4378402;32;20088;-66
2022/01/16 09:15:52;;;;;;;1.27;1.12;;;-3.10;99.90;;;;;;4403058;32;20085;-66
2022/01/16 09:18:19;;;;;;;0.90;0.90;;;-3.20;99.90;;;;;;4404282;32;20070;-65
2022/01/16 09:20:46;;;;;;;1.60;1.20;;;-3.00;99.90;;;;;;4377133;32;20081;-67
2022/01/16 09:23:13;;;;;;;1.65;0.95;;;-3.00;99.90;;;;;;4390387;32;20080;-65
2022/01/16 09:25:39;;;;;;;1.60;1.08;;;-3.10;99.90;;;;;;4402846;32;20538;-66
2022/01/16 09:28:06;;;;;;;1.17;1.08;;;-3.20;99.90;;;;;;4391239;32;20081;-65
2022/01/16 09:30:34;;;;;;;1.77;1.08;;;-2.90;99.90;;;;;;4390275;32;20073;-66
2022/01/16 09:33:01;;;;;;;0.98;0.98;;;-3.10;99.90;;;;;;4402236;32;20145;-66
2022/01/16 09:35:28;;;;;;;1.85;1.25;;;-3.20;99.90;;;;;;4389750;32;20109;-66
2022/01/16 09:37:55;;;;;;;2.25;1.33;;;-3.10;99.90;;;;;;4402534;32;20520;-66
2022/01/16 09:40:22;;;;;;;1.92;1.52;;;-3.20;99.90;;;;;;4380676;32;20065;-65
2022/01/16 09:42:52;;;;;;;2.58;1.55;;;-3.10;99.90;;;;;;4392341;32;20101;-66
2022/01/16 09:45:19;;;;;;;1.98;1.45;;;-3.00;99.90;;;;;;4367242;32;20460;-65
2022/01/16 09:47:48;;;;;;;1.83;1.30;;;-3.10;99.90;;;;;;4391987;32;20097;-67
2022/01/16 09:50:20;;;;;;;2.08;1.65;;;-3.20;99.90;;;;;;4393633;32;20070;-65
2022/01/16 09:52:48;;;;;;;2.28;1.33;;;-2.80;99.90;;;;;;4396214;32;20089;-66
2022/01/16 09:55:15;;;;;;;1.50;1.25;;;-3.30;99.90;;;;;;4380244;32;20089;-66
2022/01/16 09:57:42;;;;;;;1.85;1.40;;;-3.20;99.90;;;;;;4392325;32;20090;-67
2022/01/16 10:00:13;;;;;;;2.40;1.30;;;-3.30;99.90;;;;;;4366976;32;20077;-65
2022/01/16 10:02:40;;;;;;;2.25;1.40;;;-3.20;99.90;;;;;;4391857;32;20065;-66
2022/01/16 10:05:26;;;;;;;1.73;1.20;;;-3.20;99.90;;;;;;4379496;32;20078;-65
2022/01/16 10:07:54;;;;;;;2.58;1.20;;;-3.20;99.90;;;;;;4392343;32;20073;-66
2022/01/16 10:10:44;;;;;;;2.70;1.45;;;-3.50;99.90;;;;;;4391676;32;20172;-65
2022/01/16 10:13:24;;;;;;;2.17;1.33;;;-3.40;99.90;;;;;;4392370;32;20085;-66
2022/01/16 10:15:57;;;;;;;1.85;1.48;;;-3.60;99.90;;;;;;4379643;32;20063;-65
2022/01/16 10:18:39;;;;;;;2.70;1.50;;;-3.70;99.90;;;;;;4392035;32;20092;-66
2022/01/16 10:21:08;;;;;;;2.95;1.50;;;-3.60;99.90;;;;;;4379410;32;20468;-67
2022/01/16 10:23:44;;;;;;;1.67;1.17;;;-3.60;99.90;;;;;;4393107;32;20097;-66
2022/01/16 10:26:24;;;;;;;1.50;0.83;;;-3.60;99.90;;;;;;4392691;32;20085;-66
2022/01/16 10:28:52;;;;;;;1.62;1.27;;;-3.70;99.90;;;;;;4404658;32;20097;-66
2022/01/16 10:31:25;;;;;;;2.08;1.30;;;-3.40;99.90;;;;;;4392993;32;20092;-67
2022/01/16 10:33:54;;;;;;;2.08;1.08;;;-3.50;99.90;;;;;;4379993;32;20063;-66
2022/01/16 10:36:36;;;;;;;1.92;1.02;;;-3.60;99.90;;;;;;4393480;32;20075;-66
2022/01/16 10:39:12;;;;;;;2.75;1.30;;;-3.60;99.90;;;;;;4393401;32;20097;-65
2022/01/16 10:41:39;;;;;;;1.00;0.93;;;-3.60;99.90;;;;;;4380418;32;20496;-66
2022/01/16 10:44:28;;;;;;;1.90;1.12;;;-3.50;99.90;;;;;;4392028;32;20487;-66
2022/01/16 10:46:54;;;;;;;2.37;1.30;;;-3.50;99.90;;;;;;4379914;32;20088;-67
2022/01/16 10:49:21;;;;;;;2.00;1.48;;;-3.50;99.90;;;;;;4378685;32;20182;-66
2022/01/16 10:52:05;;;;;;;1.52;0.85;;;-3.40;99.90;;;;;;4365491;32;20510;-66
2022/01/16 10:54:36;;;;;;;1.67;1.20;;;-3.50;99.90;;;;;;4390746;32;20464;-67
2022/01/16 10:57:27;;;;;;;1.37;1.00;;;-3.50;99.90;;;;;;4392217;32;20504;-66
2022/01/16 11:00:22;;;;;;;1.12;0.93;;;-3.60;99.90;;;;;;4391504;32;20089;-65
2022/01/16 11:02:52;;;;;;;1.05;0.90;;;-3.60;99.90;;;;;;4377512;32;20093;-66
2022/01/16 11:05:23;;;;;;;1.35;1.17;;;-3.50;99.90;;;;;;4391013;32;20552;-65
2022/01/16 11:08:05;;;;;;;1.83;1.15;;;-3.50;99.90;;;;;;4378357;32;20078;-66
2022/01/16 11:10:38;;;;;;;1.58;1.10;;;-3.50;99.90;;;;;;4391188;32;20061;-64
2022/01/16 11:13:11;;;;;;;2.40;1.25;;;-3.50;99.90;;;;;;4366249;32;20520;-66
2022/01/16 11:15:47;;;;;;;1.55;1.17;;;-3.50;99.90;;;;;;4394255;32;20105;-66
2022/01/16 11:18:15;;;;;;;2.55;1.27;;;-3.60;99.90;;;;;;4379019;32;20100;-65
2022/01/16 11:20:51;;;;;;;1.75;1.10;;;-3.50;99.90;;;;;;4392105;32;20073;-65
2022/01/16 11:26:04;;;;;;;2.35;1.60;;;-3.50;99.90;;;;;;4390685;32;20150;-65
2022/01/16 11:28:32;;;;;;;1.85;1.40;;;-3.50;99.90;;;;;;4377992;32;20111;-65
2022/01/16 11:31:05;;;;;;;2.60;1.50;;;-3.40;99.90;;;;;;4378177;32;20075;-66
2022/01/16 11:33:34;;;;;;;1.65;1.40;;;-3.40;99.90;;;;;;4378551;32;20447;-66
2022/01/16 11:36:08;;;;;;;3.75;1.73;;;-3.50;99.90;;;;;;4391010;32;20073;-66
2022/01/16 11:38:38;;;;;;;2.08;1.30;;;-3.60;99.90;;;;;;4390766;32;20080;-66
2022/01/16 11:41:12;;;;;;;2.67;1.80;;;-3.60;99.90;;;;;;4390429;32;20077;-65
2022/01/16 11:43:40;;;;;;;3.97;2.28;;;-3.50;99.90;;;;;;4377910;32;20070;-65
2022/01/16 11:46:22;;;;;;;3.20;1.90;;;-3.40;99.90;;;;;;4390189;32;20463;-65
2022/01/16 11:49:03;;;;;;;3.30;1.40;;;-3.70;99.90;;;;;;4377525;32;20094;-66
2022/01/16 11:51:36;;;;;;;4.70;1.90;;;-3.70;99.90;;;;;;4377611;32;20106;-66
2022/01/16 11:54:19;;;;;;;4.03;2.00;;;-3.70;99.90;;;;;;4390179;32;20077;-65
2022/01/16 11:56:45;;;;;;;1.85;1.40;;;-3.70;99.90;;;;;;4389980;32;20234;-66
2022/01/16 11:59:30;;;;;;;3.35;1.60;;;-3.70;99.90;;;;;;4377213;32;20070;-64
2022/01/16 12:02:04;;;;;;;2.15;1.50;;;-3.80;99.90;;;;;;4389846;32;20505;-66
2022/01/16 12:04:30;;;;;;;1.95;1.60;;;-3.80;99.90;;;;;;4377852;32;20069;-66
2022/01/16 12:07:15;;;;;;;2.58;1.75;;;-3.80;99.90;;;;;;4377300;32;20066;-65
2022/01/16 12:12:16;;;;;;;1.48;0.98;;;-3.80;99.90;;;;;;4391591;32;20089;-65
2022/01/16 12:15:16;;;;;;;2.65;1.10;;;-3.80;99.90;;;;;;4389749;32;20517;-65
2022/01/16 12:17:46;;;;;;;1.77;1.48;;;-3.90;99.90;;;;;;4391909;32;20503;-66
2022/01/16 12:20:15;;;;;;;2.62;1.77;;;-3.90;99.90;;;;;;4391162;32;20062;-65
2022/01/16 12:23:00;;;;;;;3.03;2.30;;;-3.90;99.90;;;;;;4390124;32;20073;-65
2022/01/16 12:25:32;;;;;;;3.83;2.30;;;-3.90;99.90;;;;;;4377495;32;20475;-65
2022/01/16 12:28:22;;;;;;;4.90;2.78;;;-4.00;99.90;;;;;;4391698;32;20070;-66
2022/01/16 12:30:59;;;;;;;4.85;3.05;;;-4.10;99.90;;;;;;4378126;32;20081;-65
2022/01/16 12:33:45;;;;;;;4.72;3.08;;;-4.20;99.90;;;;;;4389626;32;20146;-66
2022/01/16 12:36:19;;;;;;;6.05;3.28;;;-4.30;99.90;;;;;;4389650;32;20090;-66
2022/01/16 12:38:59;;;;;;;3.80;2.20;;;-4.30;99.90;;;;;;4389813;32;20464;-66
2022/01/16 12:41:31;;;;;;;3.25;2.20;;;-4.30;99.90;;;;;;4389746;32;20162;-66
2022/01/16 12:44:07;;;;;;;3.58;2.00;;;-4.30;99.90;;;;;;4389847;32;20070;-66
2022/01/16 12:46:49;;;;;;;3.50;2.30;;;-4.30;99.90;;;;;;4364854;32;20601;-66
2022/01/16 12:49:26;;;;;;;3.45;2.30;;;-4.30;99.90;;;;;;4377431;32;20090;-66
2022/01/16 12:51:56;;;;;;;3.17;2.17;;;-4.30;99.90;;;;;;4377520;32;20066;-66
2022/01/16 12:54:30;;;;;;;2.90;2.25;;;-4.40;99.90;;;;;;4389617;32;20112;-65
2022/01/16 12:57:01;;;;;;;2.72;1.90;;;-4.40;99.90;;;;;;4389627;32;20149;-65
2022/01/16 12:59:30;;;;;;;3.45;2.17;;;-4.30;99.90;;;;;;4391117;32;20080;-65
2022/01/16 13:02:01;;;;;;;2.75;2.08;;;-4.40;99.90;;;;;;4390219;32;20453;-66
2022/01/16 13:04:36;;;;;;;3.15;2.17;;;-4.40;99.90;;;;;;4377165;32;20653;-66
2022/01/16 13:07:15;;;;;;;2.92;2.05;;;-4.40;99.90;;;;;;4377026;32;20522;-66
2022/01/16 13:09:46;;;;;;;3.50;2.10;;;-4.40;99.90;;;;;;4377208;32;20488;-66
2022/01/16 13:12:14;;;;;;;3.15;2.10;;;-4.30;99.90;;;;;;4389553;32;20089;-67
2022/01/16 13:14:43;;;;;;;3.97;2.50;;;-4.30;99.90;;;;;;4391447;32;20162;-66
2022/01/16 13:17:14;;;;;;;3.90;2.53;;;-4.20;99.90;;;;;;4380015;32;20078;-65
2022/01/16 13:19:52;;;;;;;3.75;2.53;;;-4.20;99.90;;;;;;4392578;32;20081;-66
2022/01/16 13:22:29;;;;;;;3.50;2.20;;;-4.20;99.90;;;;;;4392412;32;20084;-66
2022/01/16 13:25:04;;;;;;;2.90;2.03;;;-4.20;99.90;;;;;;4392272;32;20156;-66
2022/01/16 13:27:34;;;;;;;4.07;2.20;;;-4.20;99.90;;;;;;4380253;32;20126;-66
2022/01/16 13:30:17;;;;;;;3.90;2.25;;;-4.20;99.90;;;;;;4393980;32;20089;-64
2022/01/16 13:32:45;;;;;;;5.20;2.53;;;-4.10;99.90;;;;;;4405567;32;20142;-66
2022/01/16 13:35:20;;;;;;;5.12;2.67;;;-4.00;99.90;;;;;;4392244;32;20068;-67
2022/01/16 13:37:52;;;;;;;3.47;1.90;;;-4.00;99.90;;;;;;4392672;32;20070;-65
2022/01/16 13:40:25;;;;;;;4.43;2.28;;;-4.00;99.90;;;;;;4392860;32;20085;-66
2022/01/16 13:45:44;;;;;;;3.50;1.83;;;-3.90;99.90;;;;;;4391849;32;20088;-65
2022/01/16 13:48:24;;;;;;;4.32;2.00;;;-3.90;99.90;;;;;;4379450;32;20153;-64
2022/01/16 13:51:03;;;;;;;4.80;1.90;;;-3.90;99.90;;;;;;4392141;32;20093;-66